sensor_id;sensor_type;location;lat;lon;timestamp;pressure;altitude;pressure_sealevel;temperature
40968;BMP280;57377;45.130;6.038;2022-10-15T00:02:06;92806.00;;;15.21
40968;BMP280;57377;45.130;6.038;2022-10-15T00:04:32;92816.81;;;15.44
40968;BMP280;57377;45.130;6.038;2022-10-15T00:06:57;92820.03;;;15.33
40968;BMP280;57377;45.130;6.038;2022-10-15T00:09:23;92815.41;;;15.30
40968;BMP280;57377;45.130;6.038;2022-10-15T00:11:48;92824.03;;;15.22
40968;BMP280;57377;45.130;6.038;2022-10-15T00:14:14;92819.09;;;15.46
40968;BMP280;57377;45.130;6.038;2022-10-15T00:16:40;92818.81;;;15.22
40968;BMP280;57377;45.130;6.038;2022-10-15T00:19:05;92816.63;;;15.24
40968;BMP280;57377;45.130;6.038;2022-10-15T00:21:30;92817.19;;;15.05
40968;BMP280;57377;45.130;6.038;2022-10-15T00:23:56;92819.72;;;15.26
40968;BMP280;57377;45.130;6.038;2022-10-15T00:26:24;92820.44;;;15.10
40968;BMP280;57377;45.130;6.038;2022-10-15T00:28:51;92818.38;;;14.82
40968;BMP280;57377;45.130;6.038;2022-10-15T00:31:18;92820.56;;;14.50
40968;BMP280;57377;45.130;6.038;2022-10-15T00:33:49;92823.13;;;14.80
40968;BMP280;57377;45.130;6.038;2022-10-15T00:36:17;92811.97;;;14.58
40968;BMP280;57377;45.130;6.038;2022-10-15T00:38:43;92812.81;;;14.75
40968;BMP280;57377;45.130;6.038;2022-10-15T00:41:14;92812.69;;;14.97
40968;BMP280;57377;45.130;6.038;2022-10-15T00:43:51;92812.38;;;14.81
40968;BMP280;57377;45.130;6.038;2022-10-15T00:48:54;92805.03;;;14.53
40968;BMP280;57377;45.130;6.038;2022-10-15T00:51:21;92786.56;;;14.58
40968;BMP280;57377;45.130;6.038;2022-10-15T00:53:49;92790.69;;;14.51
40968;BMP280;57377;45.130;6.038;2022-10-15T00:56:16;92790.78;;;14.38
40968;BMP280;57377;45.130;6.038;2022-10-15T00:58:43;92794.78;;;14.35
40968;BMP280;57377;45.130;6.038;2022-10-15T01:01:08;92793.94;;;14.56
40968;BMP280;57377;45.130;6.038;2022-10-15T01:03:34;92796.75;;;14.60
40968;BMP280;57377;45.130;6.038;2022-10-15T01:06:00;92800.47;;;14.67
40968;BMP280;57377;45.130;6.038;2022-10-15T01:08:26;92793.38;;;14.76
40968;BMP280;57377;45.130;6.038;2022-10-15T01:13:48;92780.03;;;14.94
40968;BMP280;57377;45.130;6.038;2022-10-15T01:16:25;92786.66;;;14.92
40968;BMP280;57377;45.130;6.038;2022-10-15T01:18:59;92781.56;;;14.87
40968;BMP280;57377;45.130;6.038;2022-10-15T01:21:32;92782.34;;;14.96
40968;BMP280;57377;45.130;6.038;2022-10-15T01:32:25;92767.13;;;14.51
40968;BMP280;57377;45.130;6.038;2022-10-15T01:35:21;92770.94;;;14.45
40968;BMP280;57377;45.130;6.038;2022-10-15T01:37:56;92756.69;;;14.21
40968;BMP280;57377;45.130;6.038;2022-10-15T01:40:46;92768.03;;;14.46
40968;BMP280;57377;45.130;6.038;2022-10-15T01:43:20;92758.09;;;14.65
40968;BMP280;57377;45.130;6.038;2022-10-15T01:45:59;92763.13;;;14.53
40968;BMP280;57377;45.130;6.038;2022-10-15T01:48:27;92761.19;;;14.67
40968;BMP280;57377;45.130;6.038;2022-10-15T01:50:57;92747.56;;;14.57
40968;BMP280;57377;45.130;6.038;2022-10-15T01:53:25;92750.31;;;14.43
40968;BMP280;57377;45.130;6.038;2022-10-15T01:55:57;92742.00;;;14.50
40968;BMP280;57377;45.130;6.038;2022-10-15T01:58:23;92744.16;;;14.40
40968;BMP280;57377;45.130;6.038;2022-10-15T02:00:51;92738.06;;;14.61
40968;BMP280;57377;45.130;6.038;2022-10-15T02:03:17;92742.56;;;14.77
40968;BMP280;57377;45.130;6.038;2022-10-15T02:05:47;92738.06;;;14.69
40968;BMP280;57377;45.130;6.038;2022-10-15T02:08:42;92736.69;;;14.16
40968;BMP280;57377;45.130;6.038;2022-10-15T02:11:14;92731.69;;;14.45
40968;BMP280;57377;45.130;6.038;2022-10-15T02:16:37;92731.00;;;14.23
40968;BMP280;57377;45.130;6.038;2022-10-15T02:21:47;92732.09;;;14.22
40968;BMP280;57377;45.130;6.038;2022-10-15T02:24:19;92738.72;;;14.28
40968;BMP280;57377;45.130;6.038;2022-10-15T02:26:46;92731.06;;;14.31
40968;BMP280;57377;45.130;6.038;2022-10-15T02:29:18;92731.06;;;14.40
40968;BMP280;57377;45.130;6.038;2022-10-15T02:31:46;92724.91;;;14.44
40968;BMP280;57377;45.130;6.038;2022-10-15T02:34:16;92730.78;;;14.49
40968;BMP280;57377;45.130;6.038;2022-10-15T02:36:42;92730.44;;;14.43
40968;BMP280;57377;45.130;6.038;2022-10-15T02:39:12;92729.81;;;14.37
40968;BMP280;57377;45.130;6.038;2022-10-15T02:41:39;92731.88;;;14.10
40968;BMP280;57377;45.130;6.038;2022-10-15T02:44:04;92737.47;;;14.25
40968;BMP280;57377;45.130;6.038;2022-10-15T02:46:30;92734.59;;;14.35
40968;BMP280;57377;45.130;6.038;2022-10-15T02:48:55;92731.41;;;14.08
40968;BMP280;57377;45.130;6.038;2022-10-15T02:51:20;92733.16;;;14.21
40968;BMP280;57377;45.130;6.038;2022-10-15T02:53:46;92737.19;;;14.27
40968;BMP280;57377;45.130;6.038;2022-10-15T02:56:11;92727.81;;;14.34
40968;BMP280;57377;45.130;6.038;2022-10-15T02:58:36;92723.00;;;14.28
40968;BMP280;57377;45.130;6.038;2022-10-15T03:01:02;92729.50;;;14.30
40968;BMP280;57377;45.130;6.038;2022-10-15T03:03:28;92723.31;;;13.96
40968;BMP280;57377;45.130;6.038;2022-10-15T03:05:53;92724.22;;;13.92
40968;BMP280;57377;45.130;6.038;2022-10-15T03:08:18;92721.09;;;14.03
40968;BMP280;57377;45.130;6.038;2022-10-15T03:10:44;92722.69;;;14.21
40968;BMP280;57377;45.130;6.038;2022-10-15T03:13:10;92720.56;;;14.31
40968;BMP280;57377;45.130;6.038;2022-10-15T03:15:36;92714.34;;;14.11
40968;BMP280;57377;45.130;6.038;2022-10-15T03:18:02;92724.59;;;13.99
40968;BMP280;57377;45.130;6.038;2022-10-15T03:20:27;92717.38;;;14.04
40968;BMP280;57377;45.130;6.038;2022-10-15T03:22:52;92716.25;;;14.27
40968;BMP280;57377;45.130;6.038;2022-10-15T03:25:18;92722.53;;;14.17
40968;BMP280;57377;45.130;6.038;2022-10-15T03:27:43;92723.56;;;14.08
40968;BMP280;57377;45.130;6.038;2022-10-15T03:30:09;92716.22;;;13.88
40968;BMP280;57377;45.130;6.038;2022-10-15T03:32:34;92719.56;;;14.02
40968;BMP280;57377;45.130;6.038;2022-10-15T03:34:59;92716.38;;;14.22
40968;BMP280;57377;45.130;6.038;2022-10-15T03:37:25;92715.50;;;14.35
40968;BMP280;57377;45.130;6.038;2022-10-15T03:39:50;92712.53;;;14.19
40968;BMP280;57377;45.130;6.038;2022-10-15T03:42:15;92711.16;;;14.22
40968;BMP280;57377;45.130;6.038;2022-10-15T03:44:40;92715.25;;;14.06
40968;BMP280;57377;45.130;6.038;2022-10-15T03:47:06;92701.78;;;13.91
40968;BMP280;57377;45.130;6.038;2022-10-15T03:49:32;92701.41;;;14.14
40968;BMP280;57377;45.130;6.038;2022-10-15T03:51:57;92707.16;;;13.94
40968;BMP280;57377;45.130;6.038;2022-10-15T03:54:22;92704.91;;;14.01
40968;BMP280;57377;45.130;6.038;2022-10-15T03:56:48;92699.44;;;14.19
40968;BMP280;57377;45.130;6.038;2022-10-15T03:59:13;92712.00;;;14.09
40968;BMP280;57377;45.130;6.038;2022-10-15T04:01:38;92720.47;;;14.06
40968;BMP280;57377;45.130;6.038;2022-10-15T04:04:04;92713.56;;;14.10
40968;BMP280;57377;45.130;6.038;2022-10-15T04:06:29;92703.47;;;13.95
40968;BMP280;57377;45.130;6.038;2022-10-15T04:08:58;92700.75;;;13.70
40968;BMP280;57377;45.130;6.038;2022-10-15T04:11:23;92723.53;;;13.48
40968;BMP280;57377;45.130;6.038;2022-10-15T04:13:49;92719.56;;;13.80
40968;BMP280;57377;45.130;6.038;2022-10-15T04:16:15;92721.59;;;13.83
40968;BMP280;57377;45.130;6.038;2022-10-15T04:18:40;92727.06;;;13.74
40968;BMP280;57377;45.130;6.038;2022-10-15T04:21:06;92742.94;;;13.12
40968;BMP280;57377;45.130;6.038;2022-10-15T04:23:31;92719.94;;;13.66
40968;BMP280;57377;45.130;6.038;2022-10-15T04:26:00;92719.50;;;13.72
40968;BMP280;57377;45.130;6.038;2022-10-15T04:28:25;92717.72;;;13.81
40968;BMP280;57377;45.130;6.038;2022-10-15T04:30:55;92728.34;;;13.54
40968;BMP280;57377;45.130;6.038;2022-10-15T04:33:21;92726.78;;;13.53
40968;BMP280;57377;45.130;6.038;2022-10-15T04:35:46;92718.91;;;13.75
40968;BMP280;57377;45.130;6.038;2022-10-15T04:38:11;92716.81;;;13.85
40968;BMP280;57377;45.130;6.038;2022-10-15T04:40:37;92732.88;;;13.71
40968;BMP280;57377;45.130;6.038;2022-10-15T04:43:02;92732.31;;;13.74
40968;BMP280;57377;45.130;6.038;2022-10-15T04:45:27;92721.66;;;13.70
40968;BMP280;57377;45.130;6.038;2022-10-15T04:47:53;92718.50;;;13.81
40968;BMP280;57377;45.130;6.038;2022-10-15T04:50:18;92730.75;;;13.73
40968;BMP280;57377;45.130;6.038;2022-10-15T04:52:43;92723.28;;;13.58
40968;BMP280;57377;45.130;6.038;2022-10-15T04:55:09;92731.78;;;13.93
40968;BMP280;57377;45.130;6.038;2022-10-15T04:57:34;92731.38;;;14.00
40968;BMP280;57377;45.130;6.038;2022-10-15T05:00:00;92735.34;;;13.97
40968;BMP280;57377;45.130;6.038;2022-10-15T05:02:25;92730.22;;;13.92
40968;BMP280;57377;45.130;6.038;2022-10-15T05:04:50;92720.38;;;13.59
40968;BMP280;57377;45.130;6.038;2022-10-15T05:07:16;92730.03;;;13.80
40968;BMP280;57377;45.130;6.038;2022-10-15T05:09:41;92736.94;;;13.55
40968;BMP280;57377;45.130;6.038;2022-10-15T05:12:06;92728.44;;;13.71
40968;BMP280;57377;45.130;6.038;2022-10-15T05:14:32;92729.50;;;13.70
40968;BMP280;57377;45.130;6.038;2022-10-15T05:16:57;92730.75;;;13.73
40968;BMP280;57377;45.130;6.038;2022-10-15T05:19:22;92743.22;;;13.54
40968;BMP280;57377;45.130;6.038;2022-10-15T05:21:48;92735.19;;;13.20
40968;BMP280;57377;45.130;6.038;2022-10-15T05:24:13;92741.69;;;13.53
40968;BMP280;57377;45.130;6.038;2022-10-15T05:26:38;92734.03;;;13.78
40968;BMP280;57377;45.130;6.038;2022-10-15T05:29:04;92730.13;;;13.76
40968;BMP280;57377;45.130;6.038;2022-10-15T05:31:31;92730.59;;;13.77
40968;BMP280;57377;45.130;6.038;2022-10-15T05:33:56;92739.53;;;13.77
40968;BMP280;57377;45.130;6.038;2022-10-15T05:36:27;92738.66;;;13.89
40968;BMP280;57377;45.130;6.038;2022-10-15T05:38:55;92732.38;;;13.90
40968;BMP280;57377;45.130;6.038;2022-10-15T05:41:21;92739.28;;;13.86
40968;BMP280;57377;45.130;6.038;2022-10-15T05:43:50;92740.31;;;13.77
40968;BMP280;57377;45.130;6.038;2022-10-15T05:46:17;92742.22;;;13.63
40968;BMP280;57377;45.130;6.038;2022-10-15T05:48:56;92745.75;;;13.59
40968;BMP280;57377;45.130;6.038;2022-10-15T05:51:23;92748.94;;;13.56
40968;BMP280;57377;45.130;6.038;2022-10-15T05:53:52;92751.69;;;13.29
40968;BMP280;57377;45.130;6.038;2022-10-15T05:56:18;92755.72;;;13.57
40968;BMP280;57377;45.130;6.038;2022-10-15T05:58:43;92752.25;;;13.70
40968;BMP280;57377;45.130;6.038;2022-10-15T06:01:11;92745.06;;;13.75
40968;BMP280;57377;45.130;6.038;2022-10-15T06:03:38;92753.72;;;13.84
40968;BMP280;57377;45.130;6.038;2022-10-15T06:06:04;92758.06;;;13.88
40968;BMP280;57377;45.130;6.038;2022-10-15T06:08:30;92754.50;;;13.84
40968;BMP280;57377;45.130;6.038;2022-10-15T06:11:01;92764.50;;;13.61
40968;BMP280;57377;45.130;6.038;2022-10-15T06:13:27;92768.09;;;13.43
40968;BMP280;57377;45.130;6.038;2022-10-15T06:15:52;92773.22;;;13.56
40968;BMP280;57377;45.130;6.038;2022-10-15T06:18:18;92773.34;;;13.73
40968;BMP280;57377;45.130;6.038;2022-10-15T06:20:44;92765.75;;;13.63
40968;BMP280;57377;45.130;6.038;2022-10-15T06:23:14;92767.34;;;13.73
40968;BMP280;57377;45.130;6.038;2022-10-15T06:25:40;92764.25;;;13.71
40968;BMP280;57377;45.130;6.038;2022-10-15T06:28:06;92764.97;;;13.84
40968;BMP280;57377;45.130;6.038;2022-10-15T06:30:31;92756.19;;;14.02
40968;BMP280;57377;45.130;6.038;2022-10-15T06:32:57;92764.69;;;13.94
40968;BMP280;57377;45.130;6.038;2022-10-15T06:35:24;92763.22;;;13.80
40968;BMP280;57377;45.130;6.038;2022-10-15T06:37:50;92768.03;;;13.86
40968;BMP280;57377;45.130;6.038;2022-10-15T06:40:15;92768.41;;;13.93
40968;BMP280;57377;45.130;6.038;2022-10-15T06:42:41;92763.16;;;13.93
40968;BMP280;57377;45.130;6.038;2022-10-15T06:45:07;92760.44;;;13.98
40968;BMP280;57377;45.130;6.038;2022-10-15T06:47:35;92769.25;;;13.37
40968;BMP280;57377;45.130;6.038;2022-10-15T06:50:00;92772.94;;;13.79
40968;BMP280;57377;45.130;6.038;2022-10-15T06:52:28;92774.66;;;14.14
40968;BMP280;57377;45.130;6.038;2022-10-15T06:54:53;92770.19;;;14.06
40968;BMP280;57377;45.130;6.038;2022-10-15T06:57:19;92778.97;;;14.10
40968;BMP280;57377;45.130;6.038;2022-10-15T06:59:44;92783.72;;;14.00
40968;BMP280;57377;45.130;6.038;2022-10-15T07:02:10;92778.03;;;14.06
40968;BMP280;57377;45.130;6.038;2022-10-15T07:04:35;92776.50;;;14.05
40968;BMP280;57377;45.130;6.038;2022-10-15T07:07:01;92788.06;;;14.12
40968;BMP280;57377;45.130;6.038;2022-10-15T07:09:26;92792.22;;;13.92
40968;BMP280;57377;45.130;6.038;2022-10-15T07:11:52;92787.09;;;13.78
40968;BMP280;57377;45.130;6.038;2022-10-15T07:14:17;92774.69;;;13.92
40968;BMP280;57377;45.130;6.038;2022-10-15T07:16:42;92782.34;;;13.80
40968;BMP280;57377;45.130;6.038;2022-10-15T07:19:08;92772.56;;;13.73
40968;BMP280;57377;45.130;6.038;2022-10-15T07:21:33;92777.13;;;13.59
40968;BMP280;57377;45.130;6.038;2022-10-15T07:23:58;92779.72;;;13.80
40968;BMP280;57377;45.130;6.038;2022-10-15T07:26:25;92771.50;;;13.95
40968;BMP280;57377;45.130;6.038;2022-10-15T07:28:52;92776.97;;;13.85
40968;BMP280;57377;45.130;6.038;2022-10-15T07:31:17;92774.97;;;13.61
40968;BMP280;57377;45.130;6.038;2022-10-15T07:33:43;92780.03;;;13.87
40968;BMP280;57377;45.130;6.038;2022-10-15T07:36:10;92777.31;;;13.92
40968;BMP280;57377;45.130;6.038;2022-10-15T07:38:37;92774.59;;;13.97
40968;BMP280;57377;45.130;6.038;2022-10-15T07:41:05;92774.34;;;14.07
40968;BMP280;57377;45.130;6.038;2022-10-15T07:43:31;92778.72;;;14.20
40968;BMP280;57377;45.130;6.038;2022-10-15T07:45:56;92777.69;;;13.99
40968;BMP280;57377;45.130;6.038;2022-10-15T07:48:21;92767.13;;;14.12
40968;BMP280;57377;45.130;6.038;2022-10-15T07:50:53;92781.53;;;14.02
40968;BMP280;57377;45.130;6.038;2022-10-15T07:53:18;92776.19;;;14.07
40968;BMP280;57377;45.130;6.038;2022-10-15T07:55:44;92774.81;;;14.09
40968;BMP280;57377;45.130;6.038;2022-10-15T07:58:09;92774.50;;;14.02
40968;BMP280;57377;45.130;6.038;2022-10-15T08:00:34;92774.94;;;14.04
40968;BMP280;57377;45.130;6.038;2022-10-15T08:03:00;92777.19;;;14.19
40968;BMP280;57377;45.130;6.038;2022-10-15T08:05:25;92782.53;;;13.92
40968;BMP280;57377;45.130;6.038;2022-10-15T08:07:50;92782.53;;;14.14
40968;BMP280;57377;45.130;6.038;2022-10-15T08:10:16;92786.56;;;14.20
40968;BMP280;57377;45.130;6.038;2022-10-15T08:12:42;92781.13;;;14.08
40968;BMP280;57377;45.130;6.038;2022-10-15T08:15:08;92780.50;;;14.11
40968;BMP280;57377;45.130;6.038;2022-10-15T08:17:33;92780.94;;;14.35
40968;BMP280;57377;45.130;6.038;2022-10-15T08:19:59;92863.31;;;22.12
40968;BMP280;57377;45.130;6.038;2022-10-15T08:22:24;92831.16;;;28.18
40968;BMP280;57377;45.130;6.038;2022-10-15T08:24:49;92824.94;;;29.37
40968;BMP280;57377;45.130;6.038;2022-10-15T08:27:16;92787.00;;;36.16
40968;BMP280;57377;45.130;6.038;2022-10-15T08:29:42;92778.25;;;39.82
40968;BMP280;57377;45.130;6.038;2022-10-15T08:32:07;92791.38;;;42.47
40968;BMP280;57377;45.130;6.038;2022-10-15T08:34:32;92791.88;;;43.30
40968;BMP280;57377;45.130;6.038;2022-10-15T08:36:57;92811.59;;;34.10
40968;BMP280;57377;45.130;6.038;2022-10-15T08:39:24;92798.56;;;37.25
40968;BMP280;57377;45.130;6.038;2022-10-15T08:41:54;92793.03;;;36.65
40968;BMP280;57377;45.130;6.038;2022-10-15T08:44:24;92784.59;;;37.66
40968;BMP280;57377;45.130;6.038;2022-10-15T08:49:42;92770.47;;;41.62
40968;BMP280;57377;45.130;6.038;2022-10-15T08:52:45;92764.28;;;39.88
40968;BMP280;57377;45.130;6.038;2022-10-15T08:55:13;92700.34;;;38.22
40968;BMP280;57377;45.130;6.038;2022-10-15T09:00:44;92686.91;;;26.90
40968;BMP280;57377;45.130;6.038;2022-10-15T09:03:27;92686.56;;;25.66
40968;BMP280;57377;45.130;6.038;2022-10-15T09:06:03;92693.72;;;24.56
40968;BMP280;57377;45.130;6.038;2022-10-15T09:11:53;92717.06;;;20.25
40968;BMP280;57377;45.130;6.038;2022-10-15T09:14:29;92714.44;;;20.86
40968;BMP280;57377;45.130;6.038;2022-10-15T09:16:58;92710.78;;;21.24
40968;BMP280;57377;45.130;6.038;2022-10-15T09:19:27;92702.13;;;21.42
40968;BMP280;57377;45.130;6.038;2022-10-15T09:21:55;92706.69;;;20.31
40968;BMP280;57377;45.130;6.038;2022-10-15T09:24:23;92704.56;;;20.83
40968;BMP280;57377;45.130;6.038;2022-10-15T09:27:04;92697.72;;;20.21
40968;BMP280;57377;45.130;6.038;2022-10-15T09:29:47;92709.78;;;20.64
40968;BMP280;57377;45.130;6.038;2022-10-15T09:37:50;92708.50;;;18.72
40968;BMP280;57377;45.130;6.038;2022-10-15T09:43:33;92706.00;;;18.63
40968;BMP280;57377;45.130;6.038;2022-10-15T09:46:03;92685.75;;;19.96
40968;BMP280;57377;45.130;6.038;2022-10-15T09:48:35;92699.81;;;19.07
40968;BMP280;57377;45.130;6.038;2022-10-15T09:51:15;92688.06;;;19.43
40968;BMP280;57377;45.130;6.038;2022-10-15T09:54:17;92689.06;;;18.76
40968;BMP280;57377;45.130;6.038;2022-10-15T09:56:48;92683.16;;;19.30
40968;BMP280;57377;45.130;6.038;2022-10-15T09:59:18;92674.69;;;18.97
40968;BMP280;57377;45.130;6.038;2022-10-15T10:02:03;92682.78;;;19.70
40968;BMP280;57377;45.130;6.038;2022-10-15T10:04:33;92670.97;;;19.53
40968;BMP280;57377;45.130;6.038;2022-10-15T10:07:04;92675.47;;;19.25
40968;BMP280;57377;45.130;6.038;2022-10-15T10:09:47;92671.13;;;19.05
40968;BMP280;57377;45.130;6.038;2022-10-15T10:12:20;92668.28;;;18.87
40968;BMP280;57377;45.130;6.038;2022-10-15T10:14:59;92677.31;;;18.86
40968;BMP280;57377;45.130;6.038;2022-10-15T10:17:28;92656.13;;;20.18
40968;BMP280;57377;45.130;6.038;2022-10-15T10:20:12;92658.59;;;20.11
40968;BMP280;57377;45.130;6.038;2022-10-15T10:22:48;92658.31;;;19.85
40968;BMP280;57377;45.130;6.038;2022-10-15T10:28:02;92649.38;;;20.35
40968;BMP280;57377;45.130;6.038;2022-10-15T10:31:01;92656.28;;;20.70
40968;BMP280;57377;45.130;6.038;2022-10-15T10:36:04;92660.28;;;20.03
40968;BMP280;57377;45.130;6.038;2022-10-15T10:38:35;92662.31;;;19.13
40968;BMP280;57377;45.130;6.038;2022-10-15T10:41:08;92654.03;;;18.99
40968;BMP280;57377;45.130;6.038;2022-10-15T10:43:51;92651.13;;;19.16
40968;BMP280;57377;45.130;6.038;2022-10-15T10:46:18;92649.56;;;19.15
40968;BMP280;57377;45.130;6.038;2022-10-15T10:48:46;92640.69;;;20.04
40968;BMP280;57377;45.130;6.038;2022-10-15T10:51:17;92644.53;;;20.07
40968;BMP280;57377;45.130;6.038;2022-10-15T10:53:50;92630.94;;;20.69
40968;BMP280;57377;45.130;6.038;2022-10-15T10:56:22;92633.88;;;20.19
40968;BMP280;57377;45.130;6.038;2022-10-15T10:58:52;92633.09;;;20.79
40968;BMP280;57377;45.130;6.038;2022-10-15T11:01:19;92630.19;;;20.54
40968;BMP280;57377;45.130;6.038;2022-10-15T11:03:45;92627.06;;;20.63
40968;BMP280;57377;45.130;6.038;2022-10-15T11:09:01;92615.50;;;21.05
40968;BMP280;57377;45.130;6.038;2022-10-15T11:14:59;92615.91;;;21.07
40968;BMP280;57377;45.130;6.038;2022-10-15T11:20:40;92602.53;;;20.82
40968;BMP280;57377;45.130;6.038;2022-10-15T11:40:27;92575.81;;;22.06
40968;BMP280;57377;45.130;6.038;2022-10-15T11:43:02;92563.84;;;21.30
40968;BMP280;57377;45.130;6.038;2022-10-15T11:45:43;92569.69;;;21.80
40968;BMP280;57377;45.130;6.038;2022-10-15T11:49:00;92567.75;;;21.99
40968;BMP280;57377;45.130;6.038;2022-10-15T11:56:38;92555.88;;;22.59
40968;BMP280;57377;45.130;6.038;2022-10-15T12:01:56;92541.94;;;22.91
40968;BMP280;57377;45.130;6.038;2022-10-15T12:04:35;92545.13;;;22.23
40968;BMP280;57377;45.130;6.038;2022-10-15T12:07:04;92538.41;;;22.58
40968;BMP280;57377;45.130;6.038;2022-10-15T12:09:37;92534.22;;;21.84
